Time;durP1;ratioP1;P1;durP2;ratioP2;P2;SDS_P1;SDS_P2;PMS_P1;PMS_P2;Temp;Humidity;BMP_temperature;BMP_pressure;BME280_temperature;BME280_humidity;BME280_pressure;Samples;Min_cycle;Max_cycle;Signal;HPM_P1;HPM_P2
2022/04/30 00:01:16;;;;;;;10.95;7.13;;;;;;;;;;5073850;28;20074;-29
2022/04/30 00:03:42;;;;;;;10.35;7.20;;;;;;;;;;5074061;28;20101;-29
2022/04/30 00:06:08;;;;;;;12.77;7.38;;;;;;;;;;5074620;28;20037;-28
2022/04/30 00:08:34;;;;;;;11.00;7.30;;;;;;;;;;5073879;28;20510;-28
2022/04/30 00:11:00;;;;;;;11.57;7.43;;;;;;;;;;5073600;28;20045;-29
2022/04/30 00:13:26;;;;;;;11.60;6.88;;;;;;;;;;5074164;28;20033;-30
2022/04/30 00:15:52;;;;;;;12.82;7.45;;;;;;;;;;5073764;28;20070;-28
2022/04/30 00:18:18;;;;;;;10.90;6.93;;;;;;;;;;5073316;28;20538;-30
2022/04/30 00:20:47;;;;;;;12.73;7.07;;;;;;;;;;5074107;28;20079;-28
2022/04/30 00:23:20;;;;;;;11.00;7.32;;;;;;;;;;5073422;28;20052;-28
2022/04/30 00:25:48;;;;;;;10.85;7.15;;;;;;;;;;5073997;28;20436;-30
2022/04/30 00:28:15;;;;;;;9.25;7.45;;;;;;;;;;5055615;28;20062;-29
2022/04/30 00:30:43;;;;;;;11.57;7.65;;;;;;;;;;5073861;28;20097;-29
2022/04/30 00:33:10;;;;;;;10.80;6.90;;;;;;;;;;5055246;28;20453;-29
2022/04/30 00:35:39;;;;;;;12.25;7.53;;;;;;;;;;5073008;28;20097;-28
2022/04/30 00:38:06;;;;;;;13.88;8.43;;;;;;;;;;5073243;28;20036;-29
2022/04/30 00:40:32;;;;;;;11.48;7.70;;;;;;;;;;5073767;28;20036;-27
2022/04/30 00:42:58;;;;;;;13.35;7.90;;;;;;;;;;5072656;28;20040;-29
2022/04/30 00:45:24;;;;;;;14.02;7.70;;;;;;;;;;5073913;28;20462;-28
2022/04/30 00:47:50;;;;;;;12.35;8.20;;;;;;;;;;5072643;28;20048;-30
2022/04/30 00:50:17;;;;;;;11.48;7.13;;;;;;;;;;5073220;28;20379;-28
2022/04/30 00:52:51;;;;;;;15.05;7.85;;;;;;;;;;5073066;28;20494;-29
2022/04/30 00:55:21;;;;;;;13.60;9.15;;;;;;;;;;5073791;28;20040;-28
2022/04/30 00:57:48;;;;;;;10.25;7.40;;;;;;;;;;5073191;28;20049;-29
2022/04/30 01:00:15;;;;;;;13.95;7.80;;;;;;;;;;5073302;28;20123;-31
2022/04/30 01:02:41;;;;;;;11.43;7.43;;;;;;;;;;5072442;28;20505;-28
2022/04/30 01:05:07;;;;;;;14.05;8.85;;;;;;;;;;5073188;28;20502;-28
2022/04/30 01:07:34;;;;;;;14.15;8.13;;;;;;;;;;5073044;28;20046;-29
2022/04/30 01:10:00;;;;;;;13.10;8.75;;;;;;;;;;5073338;28;20683;-28
2022/04/30 01:12:27;;;;;;;10.88;8.00;;;;;;;;;;5072889;28;20222;-28
2022/04/30 01:14:54;;;;;;;13.10;8.07;;;;;;;;;;5072864;28;20132;-28
2022/04/30 01:17:21;;;;;;;16.48;9.68;;;;;;;;;;5072394;28;20037;-29
2022/04/30 01:19:47;;;;;;;15.18;8.48;;;;;;;;;;5054237;28;20528;-30
2022/04/30 01:22:25;;;;;;;13.40;9.07;;;;;;;;;;5054651;28;20390;-29
2022/04/30 01:24:55;;;;;;;14.65;8.75;;;;;;;;;;5072359;28;20120;-30
2022/04/30 01:27:23;;;;;;;12.27;8.80;;;;;;;;;;5073115;28;20044;-28
2022/04/30 01:29:50;;;;;;;13.00;8.82;;;;;;;;;;5066450;28;20080;-29
2022/04/30 01:37:45;;;;;;;12.27;8.13;;;;;;;;;;5072625;28;20127;-27
2022/04/30 01:40:13;;;;;;;11.30;8.27;;;;;;;;;;5071976;28;20044;-28
2022/04/30 01:42:44;;;;;;;11.85;8.07;;;;;;;;;;5072371;28;20123;-29
2022/04/30 01:45:11;;;;;;;11.88;8.75;;;;;;;;;;5072161;28;20580;-29
2022/04/30 01:47:39;;;;;;;12.95;8.80;;;;;;;;;;5072785;28;20127;-28
2022/04/30 01:50:06;;;;;;;12.90;8.43;;;;;;;;;;5071902;28;20154;-29
2022/04/30 01:52:32;;;;;;;12.45;8.43;;;;;;;;;;5072114;28;20398;-30
2022/04/30 01:54:59;;;;;;;15.32;8.75;;;;;;;;;;5071622;28;20193;-29
2022/04/30 01:57:26;;;;;;;12.35;8.38;;;;;;;;;;5069926;28;20055;-28
2022/04/30 01:59:56;;;;;;;11.57;8.68;;;;;;;;;;5066272;28;20040;-30
2022/04/30 02:02:24;;;;;;;14.43;9.20;;;;;;;;;;5071379;28;20165;-28
2022/04/30 02:04:55;;;;;;;14.70;9.15;;;;;;;;;;5071810;28;20032;-28
2022/04/30 02:07:21;;;;;;;11.32;7.95;;;;;;;;;;5071970;28;20040;-31
2022/04/30 02:09:51;;;;;;;11.98;8.95;;;;;;;;;;5071589;28;20048;-28
2022/04/30 02:12:18;;;;;;;12.63;8.13;;;;;;;;;;5071230;28;20090;-29
2022/04/30 02:14:48;;;;;;;9.98;7.90;;;;;;;;;;5071431;28;20594;-28
2022/04/30 02:17:15;;;;;;;14.43;8.63;;;;;;;;;;5071391;28;20079;-30
2022/04/30 02:22:30;;;;;;;13.55;8.60;;;;;;;;;;5071245;28;20041;-28
2022/04/30 02:24:57;;;;;;;13.40;9.32;;;;;;;;;;5071069;28;20036;-30
2022/04/30 02:27:23;;;;;;;14.20;8.93;;;;;;;;;;5053621;28;20048;-28
2022/04/30 02:29:49;;;;;;;11.52;7.78;;;;;;;;;;5070786;28;20080;-28
2022/04/30 02:32:16;;;;;;;11.82;8.25;;;;;;;;;;5070980;28;20048;-28
2022/04/30 02:34:42;;;;;;;14.32;9.07;;;;;;;;;;5070987;28;20564;-33
2022/04/30 02:37:13;;;;;;;13.82;8.63;;;;;;;;;;5071628;28;20040;-28
2022/04/30 02:39:39;;;;;;;12.15;8.98;;;;;;;;;;5070852;28;20486;-29
2022/04/30 02:42:06;;;;;;;14.35;8.75;;;;;;;;;;5070829;28;20041;-29
2022/04/30 02:44:32;;;;;;;14.27;9.23;;;;;;;;;;5070351;28;20064;-28
2022/04/30 02:46:58;;;;;;;15.18;9.35;;;;;;;;;;5071260;28;20046;-30
2022/04/30 02:49:24;;;;;;;16.50;9.60;;;;;;;;;;5070548;28;20110;-29
2022/04/30 02:51:50;;;;;;;11.05;8.70;;;;;;;;;;5070972;28;20474;-30
2022/04/30 02:54:17;;;;;;;12.98;8.65;;;;;;;;;;5071205;28;20470;-29
2022/04/30 02:56:43;;;;;;;13.38;8.85;;;;;;;;;;5070396;28;20483;-28
2022/04/30 03:01:54;;;;;;;10.85;8.02;;;;;;;;;;5076942;28;20041;-28
2022/04/30 03:04:20;;;;;;;13.13;8.88;;;;;;;;;;5078077;28;20043;-30
2022/04/30 03:06:47;;;;;;;13.05;9.40;;;;;;;;;;5076847;28;20044;-28
2022/04/30 03:09:13;;;;;;;15.05;10.05;;;;;;;;;;5077535;28;20037;-28
2022/04/30 03:11:40;;;;;;;17.92;9.93;;;;;;;;;;5077361;28;20383;-31
2022/04/30 03:14:06;;;;;;;14.45;9.93;;;;;;;;;;5078010;28;20033;-31
2022/04/30 03:22:02;;;;;;;14.00;8.80;;;;;;;;;;5077007;28;20102;-29
2022/04/30 03:24:29;;;;;;;17.08;9.77;;;;;;;;;;5077291;28;20032;-32
2022/04/30 03:26:55;;;;;;;16.42;10.13;;;;;;;;;;5077254;28;20438;-30
2022/04/30 03:29:23;;;;;;;14.20;9.65;;;;;;;;;;5077286;28;20093;-30
2022/04/30 03:31:49;;;;;;;17.75;10.00;;;;;;;;;;5076603;28;20044;-30
2022/04/30 03:34:15;;;;;;;15.63;10.23;;;;;;;;;;5077584;28;20119;-29
2022/04/30 03:36:43;;;;;;;13.65;10.10;;;;;;;;;;5076933;28;20070;-30
2022/04/30 03:39:09;;;;;;;19.05;10.63;;;;;;;;;;5077733;28;20098;-30
2022/04/30 03:41:36;;;;;;;14.48;9.95;;;;;;;;;;5076458;28;20147;-33
2022/04/30 03:44:02;;;;;;;18.70;10.25;;;;;;;;;;5077775;28;20086;-31
2022/04/30 03:46:28;;;;;;;13.75;10.10;;;;;;;;;;5076483;28;20466;-32
2022/04/30 03:48:56;;;;;;;14.60;10.40;;;;;;;;;;5077225;28;20044;-30
2022/04/30 03:51:22;;;;;;;17.70;10.20;;;;;;;;;;5076797;28;20037;-30
2022/04/30 03:53:48;;;;;;;13.48;9.45;;;;;;;;;;5078099;28;20036;-29
2022/04/30 03:56:16;;;;;;;16.35;10.38;;;;;;;;;;5077768;28;20033;-28
2022/04/30 03:58:42;;;;;;;14.38;9.45;;;;;;;;;;5078324;28;20513;-29
2022/04/30 04:01:08;;;;;;;15.10;9.35;;;;;;;;;;5076821;28;20044;-33
2022/04/30 04:03:36;;;;;;;13.10;9.80;;;;;;;;;;5076665;28;20127;-30
2022/04/30 04:06:02;;;;;;;16.05;9.68;;;;;;;;;;5076735;28;20049;-27
2022/04/30 04:08:28;;;;;;;15.70;9.70;;;;;;;;;;5077030;28;20051;-28
2022/04/30 04:10:55;;;;;;;17.75;9.75;;;;;;;;;;5073995;28;20040;-27
2022/04/30 04:18:51;;;;;;;12.82;8.90;;;;;;;;;;5035788;28;20402;-31
2022/04/30 04:21:18;;;;;;;17.38;9.15;;;;;;;;;;5060646;28;20114;-29
2022/04/30 04:26:29;;;;;;;11.60;9.13;;;;;;;;;;5073287;28;20084;-28
2022/04/30 04:28:55;;;;;;;14.82;10.13;;;;;;;;;;5073472;28;20044;-29
2022/04/30 04:31:22;;;;;;;16.52;9.60;;;;;;;;;;5073023;28;20114;-28
2022/04/30 04:33:49;;;;;;;13.82;9.35;;;;;;;;;;5073137;28;20037;-30
2022/04/30 04:36:16;;;;;;;15.05;9.70;;;;;;;;;;5072844;28;20044;-29
2022/04/30 04:38:42;;;;;;;14.93;9.55;;;;;;;;;;5072911;28;20045;-28
2022/04/30 04:41:08;;;;;;;12.85;9.00;;;;;;;;;;5073384;28;20181;-29
2022/04/30 04:43:34;;;;;;;16.48;10.40;;;;;;;;;;5072832;28;20049;-31
2022/04/30 04:46:02;;;;;;;15.15;9.82;;;;;;;;;;5073462;28;20064;-28
2022/04/30 04:48:28;;;;;;;17.67;10.75;;;;;;;;;;5072587;28;20044;-32
2022/04/30 04:50:55;;;;;;;14.25;9.98;;;;;;;;;;5073022;28;20064;-28
2022/04/30 04:53:21;;;;;;;13.35;9.10;;;;;;;;;;5072051;28;20094;-27
2022/04/30 04:55:47;;;;;;;15.85;9.82;;;;;;;;;;5072969;28;20044;-28
2022/04/30 04:58:14;;;;;;;13.93;9.40;;;;;;;;;;5072798;28;20047;-31
2022/04/30 05:00:40;;;;;;;14.95;10.25;;;;;;;;;;5073022;28;20412;-28
2022/04/30 05:03:07;;;;;;;19.42;10.40;;;;;;;;;;5062162;28;20490;-32
2022/04/30 05:05:33;;;;;;;17.73;10.50;;;;;;;;;;5058972;28;20144;-31
2022/04/30 05:07:59;;;;;;;16.33;10.80;;;;;;;;;;5060024;28;20052;-28
2022/04/30 05:10:25;;;;;;;16.35;11.23;;;;;;;;;;5037927;28;20124;-31
2022/04/30 05:12:51;;;;;;;15.30;9.80;;;;;;;;;;5068268;28;20040;-28
2022/04/30 05:15:17;;;;;;;14.05;10.48;;;;;;;;;;5066592;28;20044;-28
2022/04/30 05:17:43;;;;;;;14.60;10.00;;;;;;;;;;5056650;28;20033;-31
2022/04/30 05:20:10;;;;;;;18.60;10.40;;;;;;;;;;5072435;28;20106;-30
2022/04/30 05:22:36;;;;;;;15.48;10.45;;;;;;;;;;5043868;28;20041;-30
2022/04/30 05:25:02;;;;;;;22.00;11.02;;;;;;;;;;5054608;28;20060;-28
2022/04/30 05:27:28;;;;;;;15.32;10.82;;;;;;;;;;5059645;28;20082;-29
2022/04/30 05:29:54;;;;;;;13.23;9.73;;;;;;;;;;5065160;28;20045;-30
2022/04/30 05:32:20;;;;;;;17.55;10.80;;;;;;;;;;5059915;28;20444;-28
2022/04/30 05:34:46;;;;;;;14.38;10.38;;;;;;;;;;5054269;28;20041;-28
2022/04/30 05:37:13;;;;;;;16.30;11.05;;;;;;;;;;5058354;28;20037;-28
2022/04/30 05:39:39;;;;;;;16.35;11.38;;;;;;;;;;5069620;28;20048;-28
2022/04/30 05:42:05;;;;;;;15.57;10.73;;;;;;;;;;5071361;28;20041;-29
2022/04/30 05:44:31;;;;;;;14.23;10.80;;;;;;;;;;5037111;28;20383;-28
2022/04/30 05:46:57;;;;;;;16.25;10.40;;;;;;;;;;5071938;28;20123;-31
2022/04/30 05:49:23;;;;;;;14.07;10.88;;;;;;;;;;5071173;28;20044;-32
2022/04/30 05:51:49;;;;;;;14.57;10.27;;;;;;;;;;5070613;28;20082;-30
2022/04/30 05:54:16;;;;;;;12.57;10.05;;;;;;;;;;5071689;28;20036;-29
2022/04/30 05:56:42;;;;;;;18.30;10.25;;;;;;;;;;5069944;28;20040;-28
2022/04/30 05:59:08;;;;;;;14.00;10.05;;;;;;;;;;5063252;28;20033;-31
2022/04/30 06:01:35;;;;;;;16.48;10.95;;;;;;;;;;5064119;28;20036;-30
2022/04/30 06:04:02;;;;;;;15.38;10.48;;;;;;;;;;5038624;28;20155;-31
2022/04/30 06:06:28;;;;;;;11.80;9.80;;;;;;;;;;5053611;28;20056;-31
2022/04/30 06:08:54;;;;;;;13.82;9.90;;;;;;;;;;5058987;28;20078;-30
2022/04/30 06:11:21;;;;;;;18.08;9.82;;;;;;;;;;5071555;28;20086;-30
2022/04/30 06:13:47;;;;;;;14.07;9.38;;;;;;;;;;5068804;28;20036;-30
2022/04/30 06:16:13;;;;;;;14.15;9.80;;;;;;;;;;5064634;28;20071;-30
2022/04/30 06:18:39;;;;;;;14.40;9.73;;;;;;;;;;5070616;28;20033;-30
2022/04/30 06:21:05;;;;;;;14.27;9.90;;;;;;;;;;5070762;28;20051;-30
2022/04/30 06:23:31;;;;;;;13.43;9.85;;;;;;;;;;5070621;28;20074;-33
2022/04/30 06:25:58;;;;;;;13.90;9.73;;;;;;;;;;5070952;28;20079;-32
2022/04/30 06:28:24;;;;;;;15.70;9.55;;;;;;;;;;5070675;28;20048;-33
2022/04/30 06:30:50;;;;;;;13.82;8.82;;;;;;;;;;5070517;28;20080;-32
2022/04/30 06:33:16;;;;;;;12.60;9.43;;;;;;;;;;5056312;28;20518;-30
2022/04/30 06:35:44;;;;;;;12.20;9.07;;;;;;;;;;5058589;28;20033;-32
2022/04/30 06:38:11;;;;;;;11.95;8.68;;;;;;;;;;5059002;28;20045;-31
2022/04/30 06:40:37;;;;;;;10.55;8.20;;;;;;;;;;5055422;28;20135;-30
2022/04/30 06:43:03;;;;;;;13.35;8.73;;;;;;;;;;5054997;28;20052;-31
2022/04/30 06:45:30;;;;;;;13.88;7.95;;;;;;;;;;5065947;28;20040;-30
2022/04/30 06:47:56;;;;;;;9.82;8.50;;;;;;;;;;5060985;28;20081;-30
2022/04/30 06:50:22;;;;;;;10.82;7.95;;;;;;;;;;5070430;28;20086;-30
2022/04/30 06:58:17;;;;;;;15.65;8.45;;;;;;;;;;5049871;28;20513;-30
2022/04/30 07:03:27;;;;;;;11.40;8.18;;;;;;;;;;5056636;28;20091;-32
2022/04/30 07:06:03;;;;;;;10.40;8.00;;;;;;;;;;5059721;28;20040;-32
2022/04/30 07:08:29;;;;;;;13.48;8.32;;;;;;;;;;5056787;28;20040;-32
2022/04/30 07:10:55;;;;;;;12.75;8.38;;;;;;;;;;5068812;28;20048;-30
2022/04/30 07:13:22;;;;;;;9.60;8.32;;;;;;;;;;5070148;28;20032;-30
2022/04/30 07:15:48;;;;;;;11.82;8.35;;;;;;;;;;5069042;28;20036;-30
2022/04/30 07:18:14;;;;;;;11.48;8.63;;;;;;;;;;5067492;28;20101;-31
2022/04/30 07:20:40;;;;;;;10.07;9.07;;;;;;;;;;5067106;28;20048;-32
2022/04/30 07:23:06;;;;;;;10.88;8.00;;;;;;;;;;5066789;28;20077;-33
2022/04/30 07:25:32;;;;;;;11.07;8.48;;;;;;;;;;5066011;28;20051;-31
2022/04/30 07:27:58;;;;;;;11.13;8.25;;;;;;;;;;5066945;28;20052;-29
2022/04/30 07:30:24;;;;;;;10.40;7.82;;;;;;;;;;5066231;28;20082;-31
2022/04/30 07:32:50;;;;;;;10.50;7.30;;;;;;;;;;5069606;28;20060;-30
2022/04/30 07:35:17;;;;;;;8.25;6.88;;;;;;;;;;5069601;28;20037;-29
2022/04/30 07:37:43;;;;;;;7.93;7.18;;;;;;;;;;5070221;28;20063;-31
2022/04/30 07:40:09;;;;;;;7.78;6.80;;;;;;;;;;5068975;28;20036;-30
2022/04/30 07:42:35;;;;;;;8.98;5.78;;;;;;;;;;5069436;28;20045;-30
2022/04/30 07:45:01;;;;;;;8.52;5.63;;;;;;;;;;5071955;28;20043;-31
2022/04/30 07:47:27;;;;;;;8.05;5.50;;;;;;;;;;5073225;28;20430;-30
2022/04/30 07:49:53;;;;;;;9.20;6.40;;;;;;;;;;5073527;28;20356;-32
2022/04/30 07:52:19;;;;;;;8.30;6.50;;;;;;;;;;5073017;28;20047;-31
2022/04/30 07:54:45;;;;;;;7.07;5.85;;;;;;;;;;5074045;28;20081;-31
2022/04/30 07:57:11;;;;;;;10.52;6.25;;;;;;;;;;5073564;28;20402;-31
2022/04/30 07:59:37;;;;;;;6.93;6.22;;;;;;;;;;5073762;28;20036;-30
2022/04/30 08:02:04;;;;;;;7.82;6.50;;;;;;;;;;5073299;28;20051;-31
2022/04/30 08:04:30;;;;;;;7.53;5.68;;;;;;;;;;5063997;28;20041;-33
2022/04/30 08:06:56;;;;;;;7.10;6.05;;;;;;;;;;5063690;28;20038;-29
2022/04/30 08:09:22;;;;;;;9.52;6.05;;;;;;;;;;5072079;28;20128;-28
2022/04/30 08:11:49;;;;;;;9.70;6.47;;;;;;;;;;5073046;28;20033;-30
2022/04/30 08:14:15;;;;;;;9.93;6.03;;;;;;;;;;5056011;28;20131;-28
2022/04/30 08:16:41;;;;;;;7.40;6.10;;;;;;;;;;5072969;28;20032;-29
2022/04/30 08:19:07;;;;;;;6.90;5.80;;;;;;;;;;5073749;28;20064;-30
2022/04/30 08:21:34;;;;;;;7.28;6.38;;;;;;;;;;5073400;28;20102;-32
2022/04/30 08:24:00;;;;;;;6.53;6.03;;;;;;;;;;5074412;28;20047;-28
2022/04/30 08:26:26;;;;;;;10.52;6.40;;;;;;;;;;5073825;28;20047;-32
2022/04/30 08:28:52;;;;;;;8.07;5.78;;;;;;;;;;5074426;28;20521;-29
2022/04/30 08:31:18;;;;;;;12.95;6.00;;;;;;;;;;5072296;28;20070;-29
2022/04/30 08:33:44;;;;;;;6.45;5.82;;;;;;;;;;5042493;28;20068;-30
2022/04/30 08:36:10;;;;;;;5.78;5.18;;;;;;;;;;5060904;28;20037;-30
2022/04/30 08:38:36;;;;;;;6.43;5.25;;;;;;;;;;5047245;28;20040;-30
2022/04/30 08:41:03;;;;;;;6.72;5.22;;;;;;;;;;5053770;28;20390;-28
2022/04/30 08:43:29;;;;;;;7.90;5.13;;;;;;;;;;5073631;28;20465;-30
2022/04/30 08:45:55;;;;;;;6.10;5.10;;;;;;;;;;5073071;28;20051;-30
2022/04/30 08:48:21;;;;;;;6.53;5.00;;;;;;;;;;5073441;28;20086;-28
2022/04/30 08:50:48;;;;;;;5.45;4.90;;;;;;;;;;5065354;28;20045;-28
2022/04/30 08:53:14;;;;;;;6.97;5.30;;;;;;;;;;5039699;28;20044;-27
2022/04/30 08:55:40;;;;;;;7.55;5.63;;;;;;;;;;5074088;28;20044;-30
2022/04/30 08:58:07;;;;;;;8.63;5.78;;;;;;;;;;5073332;28;20048;-31
2022/04/30 09:00:43;;;;;;;7.45;5.57;;;;;;;;;;5074418;28;20044;-31
2022/04/30 09:03:09;;;;;;;7.05;5.13;;;;;;;;;;5072393;28;20036;-31
2022/04/30 09:05:36;;;;;;;5.95;5.35;;;;;;;;;;5074366;28;20048;-31
2022/04/30 09:08:03;;;;;;;6.60;5.03;;;;;;;;;;5038698;28;20128;-30
2022/04/30 09:10:30;;;;;;;7.32;5.47;;;;;;;;;;5073550;28;20052;-31
2022/04/30 09:13:06;;;;;;;9.60;5.45;;;;;;;;;;5072056;28;20075;-31
2022/04/30 09:15:32;;;;;;;7.43;5.55;;;;;;;;;;5065526;28;20037;-31
2022/04/30 09:17:59;;;;;;;7.22;6.13;;;;;;;;;;5030078;28;20115;-32
2022/04/30 09:20:25;;;;;;;8.23;6.00;;;;;;;;;;5022849;28;20049;-30
2022/04/30 09:22:52;;;;;;;7.18;6.07;;;;;;;;;;5038093;28;20083;-28
2022/04/30 09:25:19;;;;;;;6.18;5.53;;;;;;;;;;5055558;28;20079;-32
2022/04/30 09:27:48;;;;;;;7.60;6.03;;;;;;;;;;5054558;28;20044;-30
2022/04/30 09:30:18;;;;;;;7.03;5.90;;;;;;;;;;5067963;28;20044;-31
2022/04/30 09:32:45;;;;;;;10.85;5.30;;;;;;;;;;5053090;28;20122;-30
2022/04/30 09:38:05;;;;;;;;;;;;;;;;;;5070987;28;20037;-32
2022/04/30 09:40:31;;;;;;;6.68;5.03;;;;;;;;;;5070591;28;20401;-32
2022/04/30 09:42:58;;;;;;;5.65;4.70;;;;;;;;;;5071156;28;20071;-29
2022/04/30 09:45:29;;;;;;;6.45;4.88;;;;;;;;;;5072643;28;20485;-31
2022/04/30 09:47:56;;;;;;;5.43;4.93;;;;;;;;;;5071556;28;20119;-32
2022/04/30 09:55:54;;;;;;;5.20;4.68;;;;;;;;;;5054309;28;20052;-30
2022/04/30 09:58:27;;;;;;;5.75;4.85;;;;;;;;;;5053986;28;20076;-31
2022/04/30 10:00:57;;;;;;;5.57;4.70;;;;;;;;;;5072384;28;20094;-31
2022/04/30 10:03:25;;;;;;;5.53;3.60;;;;;;;;;;5071371;28;20095;-29
2022/04/30 10:05:54;;;;;;;4.88;3.92;;;;;;;;;;5071551;28;20040;-31
2022/04/30 10:08:21;;;;;;;4.10;3.70;;;;;;;;;;5071599;28;20072;-30
2022/04/30 10:10:51;;;;;;;5.00;4.05;;;;;;;;;;5071574;28;20041;-30
2022/04/30 10:13:25;;;;;;;4.88;4.25;;;;;;;;;;5071761;28;20033;-30
2022/04/30 10:15:57;;;;;;;4.63;4.22;;;;;;;;;;5071721;28;20032;-30
2022/04/30 10:18:33;;;;;;;6.25;3.88;;;;;;;;;;5071594;28;20115;-30
2022/04/30 10:21:00;;;;;;;5.28;4.43;;;;;;;;;;5071985;28;20041;-31
2022/04/30 10:23:26;;;;;;;5.53;4.53;;;;;;;;;;5069643;28;20661;-31
2022/04/30 10:25:54;;;;;;;6.68;4.93;;;;;;;;;;5070909;28;20093;-30
2022/04/30 10:28:21;;;;;;;6.22;4.55;;;;;;;;;;5070890;28;20052;-30
2022/04/30 10:31:00;;;;;;;5.15;4.25;;;;;;;;;;5071325;28;20086;-31
2022/04/30 10:33:27;;;;;;;4.60;4.20;;;;;;;;;;5070505;28;20064;-31
2022/04/30 10:36:03;;;;;;;5.20;4.07;;;;;;;;;;5072078;28;20398;-30
2022/04/30 10:38:30;;;;;;;6.60;4.05;;;;;;;;;;5070236;28;20043;-29
2022/04/30 10:41:00;;;;;;;6.15;4.40;;;;;;;;;;5071499;28;20079;-32
2022/04/30 10:43:34;;;;;;;5.15;4.35;;;;;;;;;;5070324;28;20082;-32
2022/04/30 10:46:01;;;;;;;7.25;3.88;;;;;;;;;;5070695;28;20405;-31
2022/04/30 10:48:28;;;;;;;4.45;4.05;;;;;;;;;;5070202;28;20375;-32
2022/04/30 10:51:21;;;;;;;5.55;4.18;;;;;;;;;;5054441;28;20049;-30
2022/04/30 10:53:47;;;;;;;5.18;3.75;;;;;;;;;;5038528;28;20040;-29
2022/04/30 10:56:15;;;;;;;4.25;3.80;;;;;;;;;;5060757;28;20063;-30
2022/04/30 10:58:42;;;;;;;5.38;3.88;;;;;;;;;;5058140;28;20134;-31
2022/04/30 11:01:17;;;;;;;4.93;3.80;;;;;;;;;;5063708;28;20048;-31
2022/04/30 11:03:44;;;;;;;5.05;3.70;;;;;;;;;;5064327;28;20060;-29
2022/04/30 11:06:11;;;;;;;4.45;3.28;;;;;;;;;;5067866;28;20073;-32
2022/04/30 11:08:37;;;;;;;4.60;3.85;;;;;;;;;;5061684;28;20391;-32
2022/04/30 11:11:04;;;;;;;5.55;4.15;;;;;;;;;;5068919;28;20482;-29
2022/04/30 11:13:30;;;;;;;6.97;3.65;;;;;;;;;;5061449;28;20039;-29
2022/04/30 11:15:59;;;;;;;5.22;3.60;;;;;;;;;;5063945;28;20438;-33
2022/04/30 11:18:25;;;;;;;5.03;3.83;;;;;;;;;;5064195;28;20120;-29
2022/04/30 11:21:01;;;;;;;5.20;3.50;;;;;;;;;;5063172;28;20037;-29
2022/04/30 11:23:27;;;;;;;5.88;3.45;;;;;;;;;;5069015;28;20028;-30
2022/04/30 11:25:53;;;;;;;4.75;3.17;;;;;;;;;;5061847;28;20045;-30
2022/04/30 11:28:19;;;;;;;3.78;3.22;;;;;;;;;;5050258;28;20147;-32
2022/04/30 11:30:46;;;;;;;6.18;3.67;;;;;;;;;;5069710;28;20043;-30
2022/04/30 11:33:12;;;;;;;4.13;3.70;;;;;;;;;;5069491;28;20557;-30
2022/04/30 11:35:38;;;;;;;7.20;3.80;;;;;;;;;;5060034;28;20397;-30
2022/04/30 11:38:08;;;;;;;6.05;4.07;;;;;;;;;;5066410;28;20036;-30
2022/04/30 11:40:35;;;;;;;4.18;3.78;;;;;;;;;;5067768;28;20044;-32
2022/04/30 11:43:02;;;;;;;5.30;4.32;;;;;;;;;;5064504;28;20116;-31
2022/04/30 11:45:29;;;;;;;5.43;3.95;;;;;;;;;;5068726;28;21386;-29
2022/04/30 11:47:56;;;;;;;6.70;4.72;;;;;;;;;;5062440;28;20522;-31
2022/04/30 11:50:22;;;;;;;6.55;3.90;;;;;;;;;;5072426;28;20040;-31
2022/04/30 11:52:49;;;;;;;5.28;4.10;;;;;;;;;;5072905;28;20071;-28
2022/04/30 11:55:15;;;;;;;9.18;4.60;;;;;;;;;;5068760;28;20048;-29
2022/04/30 11:57:44;;;;;;;5.97;4.63;;;;;;;;;;5068230;28;20036;-30
2022/04/30 12:00:12;;;;;;;6.85;4.43;;;;;;;;;;5072801;28;20090;-32
2022/04/30 12:02:39;;;;;;;7.32;4.90;;;;;;;;;;5073538;28;20435;-30
2022/04/30 12:05:06;;;;;;;5.90;4.57;;;;;;;;;;5068441;28;20102;-29
2022/04/30 12:07:39;;;;;;;7.85;4.95;;;;;;;;;;5068306;28;20114;-30
2022/04/30 12:10:19;;;;;;;8.88;5.00;;;;;;;;;;5070022;28;20045;-30
2022/04/30 12:12:45;;;;;;;5.47;4.47;;;;;;;;;;5072140;28;20088;-29
2022/04/30 12:15:18;;;;;;;6.70;4.40;;;;;;;;;;5073089;28;20109;-28
2022/04/30 12:17:44;;;;;;;6.15;4.55;;;;;;;;;;5074344;28;20174;-28
2022/04/30 12:25:47;;;;;;;5.53;4.07;;;;;;;;;;5074242;28;20509;-26
2022/04/30 12:28:13;;;;;;;7.13;4.32;;;;;;;;;;5074013;28;20109;-26
2022/04/30 12:30:52;;;;;;;5.90;4.50;;;;;;;;;;5072461;28;20394;-26
2022/04/30 12:33:18;;;;;;;8.23;4.95;;;;;;;;;;5071708;28;20769;-24
2022/04/30 12:35:44;;;;;;;5.78;4.10;;;;;;;;;;5070943;28;20045;-26
2022/04/30 12:38:14;;;;;;;4.88;4.38;;;;;;;;;;5070960;28;20044;-25
2022/04/30 12:40:44;;;;;;;6.80;4.45;;;;;;;;;;5071280;28;20474;-27
2022/04/30 12:43:10;;;;;;;6.82;4.70;;;;;;;;;;5071093;28;20040;-25
2022/04/30 12:45:39;;;;;;;8.63;5.05;;;;;;;;;;5071215;28;20127;-25
2022/04/30 12:48:06;;;;;;;6.10;5.22;;;;;;;;;;5072653;28;20041;-26
2022/04/30 12:50:33;;;;;;;6.38;5.00;;;;;;;;;;5073472;28;20068;-25
2022/04/30 12:52:59;;;;;;;6.32;4.65;;;;;;;;;;5074089;28;20040;-27
2022/04/30 12:55:25;;;;;;;9.10;5.40;;;;;;;;;;5073824;28;20043;-25
2022/04/30 12:57:52;;;;;;;7.18;5.07;;;;;;;;;;5073483;28;20119;-27
2022/04/30 13:00:18;;;;;;;7.72;5.30;;;;;;;;;;5073316;28;20044;-26
2022/04/30 13:02:45;;;;;;;5.85;5.25;;;;;;;;;;5073664;28;20571;-28
2022/04/30 13:05:12;;;;;;;6.38;5.30;;;;;;;;;;5073693;28;20426;-25
2022/04/30 13:07:39;;;;;;;7.60;5.20;;;;;;;;;;5073690;28;20295;-27
2022/04/30 13:15:41;;;;;;;7.35;5.32;;;;;;;;;;5073473;28;20486;-26
2022/04/30 13:18:07;;;;;;;8.38;5.78;;;;;;;;;;5073620;28;20478;-25
2022/04/30 13:20:34;;;;;;;8.85;5.82;;;;;;;;;;5073490;28;20121;-25
2022/04/30 13:23:00;;;;;;;6.18;5.57;;;;;;;;;;5073002;28;20044;-25
2022/04/30 13:25:29;;;;;;;6.47;5.80;;;;;;;;;;5073025;28;20110;-25
2022/04/30 13:27:56;;;;;;;7.38;5.32;;;;;;;;;;5072764;28;20090;-25
2022/04/30 13:30:22;;;;;;;8.00;5.53;;;;;;;;;;5072204;28;20043;-25
2022/04/30 13:32:49;;;;;;;6.32;5.13;;;;;;;;;;5072818;28;20060;-26
2022/04/30 13:35:15;;;;;;;8.30;6.57;;;;;;;;;;5072500;28;20047;-25
2022/04/30 13:37:42;;;;;;;9.85;5.50;;;;;;;;;;5072194;28;20097;-25
2022/04/30 13:40:09;;;;;;;7.88;5.95;;;;;;;;;;5072468;28;20046;-25
2022/04/30 13:42:35;;;;;;;7.28;5.60;;;;;;;;;;5053839;28;20044;-25
2022/04/30 13:45:03;;;;;;;8.30;5.07;;;;;;;;;;5072981;28;20443;-25
2022/04/30 13:47:29;;;;;;;7.88;5.97;;;;;;;;;;5072690;28;20539;-25
2022/04/30 13:49:55;;;;;;;8.60;5.88;;;;;;;;;;5072219;28;20402;-28
2022/04/30 13:52:21;;;;;;;7.70;6.40;;;;;;;;;;5072353;28;20036;-25
2022/04/30 13:54:48;;;;;;;8.07;5.43;;;;;;;;;;5072446;28;20486;-25
2022/04/30 13:57:14;;;;;;;7.50;6.10;;;;;;;;;;5072365;28;20117;-25
2022/04/30 13:59:40;;;;;;;7.72;5.10;;;;;;;;;;5072076;28;20072;-25
2022/04/30 14:02:10;;;;;;;6.55;5.28;;;;;;;;;;5072155;28;20033;-28
2022/04/30 14:04:36;;;;;;;6.13;4.95;;;;;;;;;;5072298;28;20048;-28
2022/04/30 14:07:02;;;;;;;7.05;5.30;;;;;;;;;;5072085;28;20332;-25
2022/04/30 14:09:28;;;;;;;5.82;5.22;;;;;;;;;;5072062;28;20040;-25
2022/04/30 14:11:54;;;;;;;6.43;4.65;;;;;;;;;;5072032;28;20055;-26
2022/04/30 14:18:15;;;;;;;5.10;4.57;;;;;;;;;;5072032;28;20486;-25
2022/04/30 14:19:52;;;;;;;6.13;4.55;;;;;;;;;;5071599;28;20428;-25
2022/04/30 14:22:19;;;;;;;6.72;4.95;;;;;;;;;;5071889;28;20486;-26
2022/04/30 14:24:45;;;;;;;6.40;5.05;;;;;;;;;;5071932;28;20502;-25
2022/04/30 14:27:11;;;;;;;7.13;4.85;;;;;;;;;;5071856;28;20512;-27
2022/04/30 14:29:37;;;;;;;9.35;5.18;;;;;;;;;;5071382;28;20041;-25
2022/04/30 14:32:04;;;;;;;7.15;5.20;;;;;;;;;;5068710;28;20051;-25
2022/04/30 14:34:31;;;;;;;9.50;4.85;;;;;;;;;;5068140;28;20037;-25
2022/04/30 14:36:57;;;;;;;7.70;5.20;;;;;;;;;;5068484;28;20347;-27
2022/04/30 14:39:23;;;;;;;6.03;5.40;;;;;;;;;;5070250;28;20044;-26
2022/04/30 14:41:49;;;;;;;6.00;4.68;;;;;;;;;;5070265;28;20051;-27
2022/04/30 14:44:16;;;;;;;7.95;5.53;;;;;;;;;;5070156;28;20461;-26
2022/04/30 14:46:42;;;;;;;7.78;5.20;;;;;;;;;;5070980;28;20048;-28
2022/04/30 14:49:08;;;;;;;7.20;4.78;;;;;;;;;;5071870;28;20052;-26
2022/04/30 14:51:34;;;;;;;6.20;4.10;;;;;;;;;;5071512;28;20086;-26
2022/04/30 14:54:00;;;;;;;6.13;4.38;;;;;;;;;;5071114;28;20054;-25
2022/04/30 14:56:26;;;;;;;4.80;4.32;;;;;;;;;;5071906;28;20455;-31
2022/04/30 14:58:52;;;;;;;6.18;4.20;;;;;;;;;;5071772;28;20040;-31
2022/04/30 15:01:18;;;;;;;7.65;4.15;;;;;;;;;;5070570;28;20072;-29
2022/04/30 15:03:44;;;;;;;5.78;4.32;;;;;;;;;;5060842;28;20415;-29
2022/04/30 15:06:10;;;;;;;5.15;4.47;;;;;;;;;;5058073;28;20102;-30
2022/04/30 15:08:37;;;;;;;4.68;4.05;;;;;;;;;;5065231;28;20417;-32
2022/04/30 15:11:03;;;;;;;5.03;4.00;;;;;;;;;;5071571;28;20064;-31
2022/04/30 15:13:29;;;;;;;7.55;4.53;;;;;;;;;;5068047;28;20028;-32
2022/04/30 15:15:55;;;;;;;4.70;4.13;;;;;;;;;;5052352;28;20122;-30
2022/04/30 15:18:22;;;;;;;5.72;4.40;;;;;;;;;;5067640;28;20032;-32
2022/04/30 15:20:48;;;;;;;4.57;4.07;;;;;;;;;;5071234;28;20094;-29
2022/04/30 15:23:14;;;;;;;4.57;3.83;;;;;;;;;;5070278;28;20040;-28
2022/04/30 15:25:41;;;;;;;3.97;3.60;;;;;;;;;;5071037;28;20102;-31
2022/04/30 15:28:08;;;;;;;5.05;3.90;;;;;;;;;;5058930;28;20119;-33
2022/04/30 15:30:34;;;;;;;10.00;4.50;;;;;;;;;;5051110;28;20406;-27